createdAt,value
2018-07-21T00:00:19.689Z,6.70
2018-07-21T00:02:47.801Z,6.83
2018-07-21T00:05:15.956Z,6.40
2018-07-21T00:07:44.160Z,6.90
2018-07-21T00:10:12.281Z,6.87
2018-07-21T00:12:40.424Z,6.53
2018-07-21T00:15:08.627Z,6.90
2018-07-21T00:17:36.691Z,6.10
2018-07-21T00:20:05.346Z,6.70
2018-07-21T00:22:33.530Z,7.00
2018-07-21T00:25:01.674Z,6.60
2018-07-21T00:27:29.781Z,6.72
2018-07-21T00:29:57.945Z,7.95
2018-07-21T00:32:26.102Z,6.83
2018-07-21T00:34:54.291Z,6.70
2018-07-21T00:37:22.435Z,6.90
2018-07-21T00:39:50.559Z,7.60
2018-07-21T00:42:18.706Z,7.10
2018-07-21T00:44:46.890Z,7.70
2018-07-21T00:47:15.036Z,7.03
2018-07-21T00:49:43.225Z,6.80
2018-07-21T00:52:11.424Z,7.30
2018-07-21T00:54:39.599Z,6.63
2018-07-21T00:57:07.781Z,7.80
2018-07-21T00:59:35.944Z,7.10
2018-07-21T01:02:04.090Z,7.50
2018-07-21T01:04:32.274Z,7.13
2018-07-21T01:07:00.421Z,7.80
2018-07-21T01:09:28.602Z,8.40
2018-07-21T01:11:56.754Z,7.37
2018-07-21T01:14:24.934Z,7.20
2018-07-21T01:16:53.093Z,8.03
2018-07-21T01:19:21.237Z,7.63
2018-07-21T01:21:49.414Z,8.20
2018-07-21T01:24:17.547Z,7.33
2018-07-21T01:26:45.716Z,8.30
2018-07-21T01:29:13.878Z,8.20
2018-07-21T01:31:41.979Z,8.60
2018-07-21T01:34:10.156Z,7.25
2018-07-21T01:36:38.364Z,7.70
2018-07-21T01:39:08.191Z,7.30
2018-07-21T01:41:36.301Z,7.80
2018-07-21T01:44:04.469Z,7.72
2018-07-21T01:46:32.619Z,7.80
2018-07-21T01:49:00.810Z,8.00
2018-07-21T01:51:29.005Z,8.35
2018-07-21T01:53:57.354Z,7.60
2018-07-21T01:56:25.533Z,7.80
2018-07-21T01:58:53.723Z,6.92
2018-07-21T02:01:21.888Z,7.10
2018-07-21T02:03:50.084Z,6.97
2018-07-21T02:06:18.482Z,8.78
2018-07-21T02:08:46.686Z,8.00
2018-07-21T02:11:14.878Z,8.60
2018-07-21T02:13:43.512Z,7.55
2018-07-21T02:16:11.731Z,7.77
2018-07-21T02:18:39.888Z,8.30
2018-07-21T02:21:08.038Z,8.60
2018-07-21T02:23:36.190Z,8.30
2018-07-21T02:26:04.329Z,8.07
2018-07-21T02:28:32.478Z,8.33
2018-07-21T02:31:00.635Z,8.08
2018-07-21T02:33:28.815Z,8.10
2018-07-21T02:35:56.989Z,7.90
2018-07-21T02:38:25.174Z,7.62
2018-07-21T02:40:53.327Z,8.23
2018-07-21T02:43:21.481Z,8.10
2018-07-21T02:45:49.671Z,7.87
2018-07-21T02:48:17.859Z,7.43
2018-07-21T02:50:46.056Z,7.85
2018-07-21T02:53:14.248Z,7.30
2018-07-21T02:55:42.390Z,8.50
2018-07-21T02:58:10.574Z,8.03
2018-07-21T03:00:38.757Z,8.03
2018-07-21T03:03:07.264Z,7.20
2018-07-21T03:05:35.402Z,7.70
2018-07-21T03:08:03.530Z,7.92
2018-07-21T03:10:31.720Z,7.77
2018-07-21T03:12:59.855Z,7.97
2018-07-21T03:15:28.051Z,8.05
2018-07-21T03:17:56.279Z,7.70
2018-07-21T03:20:24.453Z,7.87
2018-07-21T03:22:52.666Z,7.28
2018-07-21T03:25:20.872Z,7.17
2018-07-21T03:27:49.056Z,7.03
2018-07-21T03:30:17.254Z,7.13
2018-07-21T03:32:45.448Z,7.07
2018-07-21T03:35:13.628Z,7.90
2018-07-21T03:37:41.773Z,6.53
2018-07-21T03:40:09.945Z,7.80
2018-07-21T03:42:38.103Z,7.73
2018-07-21T03:45:06.332Z,8.20
2018-07-21T03:47:34.963Z,8.30
2018-07-21T03:50:03.154Z,7.67
2018-07-21T03:52:31.333Z,7.95
2018-07-21T03:54:59.515Z,7.50
2018-07-21T03:57:27.633Z,7.10
2018-07-21T03:59:55.803Z,8.25
2018-07-21T04:02:23.989Z,7.05
2018-07-21T04:04:52.138Z,7.47
2018-07-21T04:07:20.264Z,8.17
2018-07-21T04:09:48.435Z,8.53
2018-07-21T04:12:16.584Z,7.90
2018-07-21T04:14:44.713Z,7.80
2018-07-21T04:17:17.016Z,7.43
2018-07-21T04:19:45.137Z,8.30
2018-07-21T04:22:13.294Z,6.97
2018-07-21T04:24:41.457Z,8.53
2018-07-21T04:27:09.577Z,7.73
2018-07-21T04:29:37.744Z,9.53
2018-07-21T04:32:05.919Z,8.53
2018-07-21T04:34:34.012Z,8.00
2018-07-21T04:37:02.183Z,7.37
2018-07-21T04:39:30.332Z,8.13
2018-07-21T04:41:58.537Z,7.70
2018-07-21T04:44:26.664Z,8.77
2018-07-21T04:46:54.830Z,8.30
2018-07-21T04:49:23.018Z,8.38
2018-07-21T04:51:51.219Z,8.33
2018-07-21T04:54:19.412Z,8.77
2018-07-21T04:56:47.584Z,7.90
2018-07-21T04:59:15.764Z,6.80
2018-07-21T05:01:43.941Z,7.37
2018-07-21T05:04:12.125Z,7.00
2018-07-21T05:06:40.305Z,8.10
2018-07-21T05:09:10.302Z,6.10
2018-07-21T05:11:38.752Z,6.57
2018-07-21T05:14:07.651Z,6.30
2018-07-21T05:16:36.167Z,7.30
2018-07-21T05:19:04.315Z,6.97
2018-07-21T05:21:32.448Z,6.20
2018-07-21T05:24:00.797Z,6.93
2018-07-21T05:26:28.945Z,6.07
2018-07-21T05:28:57.057Z,5.85
2018-07-21T05:31:25.185Z,6.10
2018-07-21T05:33:53.312Z,6.50
2018-07-21T05:36:21.769Z,5.93
2018-07-21T05:38:50.805Z,6.20
2018-07-21T05:41:19.039Z,6.23
2018-07-21T05:43:47.201Z,5.70
2018-07-21T05:46:15.374Z,7.20
2018-07-21T05:48:43.522Z,6.07
2018-07-21T05:51:11.692Z,5.70
2018-07-21T05:53:39.865Z,5.83
2018-07-21T05:56:08.000Z,6.47
2018-07-21T05:58:36.126Z,6.13
2018-07-21T06:01:04.384Z,5.90
2018-07-21T06:03:32.493Z,5.47
2018-07-21T06:06:00.595Z,5.90
2018-07-21T06:08:28.784Z,6.23
2018-07-21T06:10:56.955Z,5.33
2018-07-21T06:13:25.125Z,5.20
2018-07-21T06:15:53.329Z,5.30
2018-07-21T06:18:21.519Z,4.93
2018-07-21T06:20:49.673Z,4.90
2018-07-21T06:23:17.846Z,5.17
2018-07-21T06:25:46.025Z,4.60
2018-07-21T06:28:14.183Z,4.60
2018-07-21T06:30:42.356Z,5.07
2018-07-21T06:33:10.795Z,4.68
2018-07-21T06:35:39.022Z,4.87
2018-07-21T06:38:07.147Z,4.00
2018-07-21T06:40:35.355Z,4.67
2018-07-21T06:43:03.521Z,4.73
2018-07-21T06:45:31.662Z,4.97
2018-07-21T06:47:59.862Z,4.60
2018-07-21T06:50:28.047Z,4.50
2018-07-21T06:52:56.236Z,4.80
2018-07-21T06:55:25.115Z,5.13
2018-07-21T06:57:53.384Z,5.00
2018-07-21T07:00:21.571Z,4.70
2018-07-21T07:02:49.732Z,4.90
2018-07-21T07:05:18.568Z,4.77
2018-07-21T07:07:46.759Z,4.70
2018-07-21T07:10:15.052Z,4.53
2018-07-21T07:12:43.176Z,4.00
2018-07-21T07:15:11.390Z,4.58
2018-07-21T07:17:39.615Z,4.57
2018-07-21T07:20:07.889Z,4.87
2018-07-21T07:22:36.139Z,3.77
2018-07-21T07:25:04.425Z,4.90
2018-07-21T07:27:32.573Z,4.50
2018-07-21T07:30:00.862Z,4.40
2018-07-21T07:32:29.062Z,4.33
2018-07-21T07:34:57.479Z,4.50
2018-07-21T07:37:25.650Z,4.67
2018-07-21T07:39:55.590Z,5.30
2018-07-21T07:42:29.144Z,5.20
2018-07-21T07:44:57.413Z,4.80
2018-07-21T07:47:25.618Z,4.20
2018-07-21T07:49:53.836Z,4.93
2018-07-21T07:52:23.068Z,4.83
2018-07-21T07:54:51.779Z,5.30
2018-07-21T07:57:20.320Z,5.40
2018-07-21T07:59:50.100Z,4.70
2018-07-21T08:02:19.609Z,4.83
2018-07-21T08:04:48.406Z,4.80
2018-07-21T08:07:16.674Z,4.20
2018-07-21T08:09:46.061Z,4.60
2018-07-21T08:12:14.440Z,4.00
2018-07-21T08:14:43.007Z,4.45
2018-07-21T08:17:11.734Z,5.27
2018-07-21T08:19:43.388Z,4.70
2018-07-21T08:22:12.490Z,4.93
2018-07-21T08:24:40.798Z,5.33
2018-07-21T08:27:08.973Z,4.50
2018-07-21T08:29:37.220Z,4.80
2018-07-21T08:32:05.423Z,4.40
2018-07-21T08:34:33.752Z,4.50
2018-07-21T08:37:02.941Z,5.15
2018-07-21T08:39:31.103Z,4.90
2018-07-21T08:41:59.286Z,5.57
2018-07-21T08:44:29.617Z,4.77
2018-07-21T08:46:57.870Z,5.93
2018-07-21T08:49:26.281Z,4.57
2018-07-21T08:51:55.778Z,5.30
2018-07-21T08:54:33.762Z,5.00
2018-07-21T08:57:01.933Z,5.00
2018-07-21T08:59:30.294Z,5.42
2018-07-21T09:01:58.877Z,4.80
2018-07-21T09:04:27.843Z,5.05
2018-07-21T09:07:00.763Z,4.80
2018-07-21T09:09:28.965Z,5.67
2018-07-21T09:11:57.182Z,5.20
2018-07-21T09:14:25.364Z,5.22
2018-07-21T09:16:59.188Z,5.27
2018-07-21T09:19:27.419Z,5.50
2018-07-21T09:21:55.733Z,5.65
2018-07-21T09:24:23.939Z,5.30
2018-07-21T09:26:52.237Z,5.30
2018-07-21T09:29:20.548Z,4.97
2018-07-21T09:31:48.811Z,5.00
2018-07-21T09:34:17.124Z,6.53
2018-07-21T09:36:45.333Z,4.77
2018-07-21T09:39:14.586Z,4.83
2018-07-21T09:41:42.826Z,5.40
2018-07-21T09:44:11.055Z,4.90
2018-07-21T09:46:39.243Z,5.43
2018-07-21T09:49:07.476Z,5.43
2018-07-21T09:51:35.693Z,4.80
2018-07-21T09:54:03.866Z,5.10
2018-07-21T09:56:32.064Z,4.93
2018-07-21T09:59:00.504Z,5.27
2018-07-21T10:01:35.677Z,5.27
2018-07-21T10:04:03.733Z,4.73
2018-07-21T10:06:32.192Z,5.60
2018-07-21T10:09:00.506Z,5.62
2018-07-21T10:11:28.925Z,4.80
2018-07-21T10:13:57.203Z,5.80
2018-07-21T10:16:25.484Z,5.30
2018-07-21T10:18:53.659Z,4.95
2018-07-21T10:21:21.836Z,6.13
2018-07-21T10:23:50.051Z,5.00
2018-07-21T10:26:23.669Z,5.40
2018-07-21T10:28:57.224Z,6.23
2018-07-21T10:31:25.408Z,5.60
2018-07-21T10:33:53.625Z,5.57
2018-07-21T10:36:22.696Z,5.42
2018-07-21T10:38:50.858Z,6.07
2018-07-21T10:41:19.035Z,5.00
2018-07-21T10:43:47.186Z,6.00
2018-07-21T10:46:15.342Z,5.03
2018-07-21T10:48:43.521Z,6.00
2018-07-21T10:51:11.721Z,5.67
2018-07-21T10:53:39.876Z,5.70
2018-07-21T10:56:08.088Z,5.50
2018-07-21T10:58:36.294Z,5.23
2018-07-21T11:01:04.413Z,5.70
2018-07-21T11:03:32.613Z,6.37
2018-07-21T11:06:00.726Z,5.80
2018-07-21T11:08:28.912Z,5.90
2018-07-21T11:10:57.058Z,5.60
2018-07-21T11:13:25.227Z,5.90
2018-07-21T11:15:53.546Z,5.57
2018-07-21T11:18:21.707Z,6.90
2018-07-21T11:20:49.831Z,6.77
2018-07-21T11:23:17.955Z,6.40
2018-07-21T11:25:46.137Z,6.43
2018-07-21T11:28:14.322Z,7.87
2018-07-21T11:30:42.506Z,5.80
2018-07-21T11:50:19.661Z,6.80
2018-07-21T11:52:47.822Z,6.30
2018-07-21T11:55:16.001Z,6.97
2018-07-21T11:57:44.154Z,6.63
2018-07-21T12:00:12.307Z,6.37
2018-07-21T12:02:40.471Z,6.97
2018-07-21T12:05:08.771Z,6.50
2018-07-21T12:07:36.963Z,5.93
2018-07-21T12:10:05.250Z,5.90
2018-07-21T12:12:33.361Z,6.57
2018-07-21T12:15:01.499Z,5.77
2018-07-21T12:17:29.634Z,6.93
2018-07-21T12:19:58.707Z,6.50
2018-07-21T12:22:27.325Z,6.60
2018-07-21T12:24:55.537Z,6.67
2018-07-21T12:27:23.710Z,6.33
2018-07-21T12:29:51.851Z,6.67
2018-07-21T12:32:20.009Z,7.13
2018-07-21T12:34:48.222Z,6.50
2018-07-21T12:37:16.421Z,6.30
2018-07-21T12:39:44.904Z,6.67
2018-07-21T12:42:13.164Z,7.67
2018-07-21T12:44:41.332Z,6.67
2018-07-21T12:47:09.571Z,6.63
2018-07-21T12:49:37.733Z,7.13
2018-07-21T12:52:05.970Z,7.00
2018-07-21T12:54:34.138Z,7.10
2018-07-21T12:57:02.345Z,6.67
2018-07-21T12:59:30.551Z,6.77
2018-07-21T13:01:58.708Z,7.03
2018-07-21T13:04:26.868Z,7.33
2018-07-21T13:06:55.174Z,6.70
2018-07-21T13:09:23.373Z,7.30
2018-07-21T13:11:51.623Z,7.20
2018-07-21T13:14:19.902Z,6.97
2018-07-21T13:16:48.044Z,6.70
2018-07-21T13:19:16.357Z,7.33
2018-07-21T13:21:44.490Z,6.20
2018-07-21T13:24:12.680Z,7.17
2018-07-21T13:26:40.849Z,7.28
2018-07-21T13:29:08.993Z,6.40
2018-07-21T13:31:37.183Z,7.03
2018-07-21T13:34:05.429Z,7.30
2018-07-21T13:36:33.654Z,6.03
2018-07-21T13:39:01.832Z,7.20
2018-07-21T13:41:29.977Z,7.40
2018-07-21T13:43:59.437Z,6.87
2018-07-21T13:46:27.598Z,6.80
2018-07-21T13:48:55.768Z,7.30
2018-07-21T13:51:23.937Z,6.53
2018-07-21T13:53:52.207Z,6.87
2018-07-21T13:56:20.415Z,7.30
2018-07-21T13:58:48.597Z,6.73
2018-07-21T14:01:16.761Z,7.43
2018-07-21T14:03:44.880Z,7.03
2018-07-21T14:06:13.012Z,7.00
2018-07-21T14:08:41.178Z,6.43
2018-07-21T14:11:09.354Z,7.10
2018-07-21T14:13:38.102Z,6.60
2018-07-21T14:16:06.282Z,7.00
2018-07-21T14:18:34.550Z,6.80
2018-07-21T14:23:42.575Z,6.70
2018-07-21T14:26:10.814Z,6.87
2018-07-21T14:28:38.962Z,7.00
2018-07-21T14:31:07.174Z,7.13
2018-07-21T14:33:35.360Z,7.87
2018-07-21T14:36:03.672Z,7.20
2018-07-21T14:38:31.946Z,6.80
2018-07-21T14:41:00.101Z,7.30
2018-07-21T14:43:28.229Z,6.63
2018-07-21T14:45:56.389Z,7.08
2018-07-21T14:48:24.613Z,6.90
2018-07-21T14:50:52.765Z,6.30
2018-07-21T14:53:20.904Z,7.33
2018-07-21T14:55:49.051Z,6.70
2018-07-21T14:58:17.234Z,7.03
2018-07-21T15:00:45.517Z,6.33
2018-07-21T15:03:13.666Z,6.50
2018-07-21T15:05:41.910Z,7.07
2018-07-21T15:08:10.082Z,7.20
2018-07-21T15:10:38.388Z,6.93
2018-07-21T15:13:06.580Z,6.53
2018-07-21T15:15:34.930Z,7.43
2018-07-21T15:18:03.116Z,7.22
2018-07-21T15:20:31.293Z,7.70
2018-07-21T15:22:59.540Z,7.28
2018-07-21T15:25:27.727Z,7.27
2018-07-21T15:27:56.321Z,6.87
2018-07-21T15:30:24.476Z,6.50
2018-07-21T15:32:52.653Z,7.30
2018-07-21T15:35:20.819Z,6.93
2018-07-21T15:37:49.087Z,7.90
2018-07-21T15:40:18.171Z,7.40
2018-07-21T15:42:46.329Z,7.67
2018-07-21T15:45:14.502Z,7.00
2018-07-21T15:47:42.751Z,6.43
2018-07-21T15:50:10.978Z,7.50
2018-07-21T15:52:39.189Z,7.47
2018-07-21T15:55:07.365Z,6.85
2018-07-21T15:57:35.530Z,7.03
2018-07-21T16:00:03.769Z,7.10
2018-07-21T16:02:31.962Z,7.87
2018-07-21T16:05:00.136Z,7.00
2018-07-21T16:07:28.328Z,7.30
2018-07-21T16:09:56.503Z,7.63
2018-07-21T16:12:24.678Z,7.50
2018-07-21T16:14:52.925Z,7.60
2018-07-21T16:17:21.161Z,7.73
2018-07-21T16:19:49.360Z,7.87
2018-07-21T16:22:17.582Z,7.90
2018-07-21T16:24:45.781Z,7.60
2018-07-21T16:27:14.353Z,8.40
2018-07-21T16:29:42.563Z,8.20
2018-07-21T16:32:12.724Z,8.90
2018-07-21T16:34:41.864Z,8.43
2018-07-21T16:37:11.028Z,9.27
2018-07-21T16:39:39.537Z,8.80
2018-07-21T16:42:07.843Z,8.37
2018-07-21T16:44:36.060Z,7.87
2018-07-21T16:47:04.269Z,8.73
2018-07-21T16:49:32.457Z,8.53
2018-07-21T16:52:00.936Z,8.07
2018-07-21T16:54:29.136Z,7.73
2018-07-21T16:56:57.385Z,8.47
2018-07-21T16:59:25.598Z,8.13
2018-07-21T17:01:53.776Z,7.80
2018-07-21T17:04:21.954Z,8.33
2018-07-21T17:06:50.089Z,7.80
2018-07-21T17:09:18.309Z,8.40
2018-07-21T17:11:46.540Z,7.17
2018-07-21T17:14:14.720Z,7.97
2018-07-21T17:16:42.886Z,8.23
2018-07-21T17:19:11.097Z,6.47
2018-07-21T17:21:39.254Z,8.03
2018-07-21T17:24:07.501Z,7.30
2018-07-21T17:26:35.744Z,8.13
2018-07-21T17:29:03.918Z,8.57
2018-07-21T17:31:32.084Z,8.20
2018-07-21T17:34:00.633Z,9.13
2018-07-21T17:36:28.831Z,8.00
2018-07-21T17:38:57.004Z,8.10
2018-07-21T17:41:25.290Z,8.63
2018-07-21T17:43:53.524Z,8.83
2018-07-21T17:46:21.789Z,7.50
2018-07-21T17:48:50.270Z,8.03
2018-07-21T17:51:18.549Z,7.63
2018-07-21T17:53:47.015Z,7.67
2018-07-21T17:56:16.130Z,7.85
2018-07-21T17:58:44.370Z,7.60
2018-07-21T18:01:12.585Z,7.30
2018-07-21T18:03:40.798Z,7.30
2018-07-21T18:06:09.194Z,6.80
2018-07-21T18:08:37.350Z,7.00
2018-07-21T18:11:10.314Z,7.30
2018-07-21T18:13:40.176Z,7.20
2018-07-21T18:16:08.453Z,7.43
2018-07-21T18:18:36.616Z,7.50
2018-07-21T18:21:04.888Z,7.60
2018-07-21T18:23:33.046Z,6.50
2018-07-21T18:26:01.282Z,7.10
2018-07-21T18:28:29.474Z,7.10
2018-07-21T18:30:57.665Z,6.83
2018-07-21T18:33:25.869Z,6.72
2018-07-21T18:35:54.057Z,7.50
2018-07-21T18:38:22.332Z,7.07
2018-07-21T18:40:50.494Z,6.90
2018-07-21T18:43:18.770Z,6.65
2018-07-21T18:45:47.015Z,6.83
2018-07-21T18:48:15.729Z,7.03
2018-07-21T18:50:44.012Z,7.10
2018-07-21T18:53:13.382Z,6.80
2018-07-21T18:55:41.610Z,7.50
2018-07-21T18:58:10.021Z,7.00
2018-07-21T19:00:38.242Z,6.83
2018-07-21T19:03:06.526Z,6.72
2018-07-21T19:05:34.724Z,7.77
2018-07-21T19:08:02.987Z,6.43
2018-07-21T19:10:31.229Z,6.87
2018-07-21T19:12:59.419Z,6.30
2018-07-21T19:15:32.789Z,6.83
2018-07-21T19:18:01.026Z,6.00
2018-07-21T19:20:34.753Z,7.00
2018-07-21T19:23:02.957Z,6.77
2018-07-21T19:25:36.409Z,7.10
2018-07-21T19:28:04.634Z,6.43
2018-07-21T19:30:32.802Z,6.87
2018-07-21T19:33:01.725Z,6.90
2018-07-21T19:35:31.167Z,7.10
2018-07-21T19:37:59.329Z,6.80
2018-07-21T19:40:27.570Z,7.20
2018-07-21T19:42:55.699Z,6.57
2018-07-21T19:45:23.939Z,7.17
2018-07-21T19:47:53.148Z,7.17
2018-07-21T19:50:21.426Z,6.70
2018-07-21T19:52:49.672Z,7.07
2018-07-21T19:55:17.830Z,7.00
2018-07-21T19:57:45.995Z,6.53
2018-07-21T20:00:14.669Z,8.25
2018-07-21T20:02:42.928Z,7.58
2018-07-21T20:05:11.101Z,7.07
2018-07-21T20:07:39.391Z,6.40
2018-07-21T20:10:08.503Z,7.07
2018-07-21T20:12:36.748Z,7.90
2018-07-21T20:15:05.030Z,7.13
2018-07-21T20:17:33.794Z,7.93
2018-07-21T20:20:01.933Z,6.87
2018-07-21T20:22:30.125Z,7.20
2018-07-21T20:24:58.341Z,7.30
2018-07-21T20:27:26.788Z,8.53
2018-07-21T20:29:54.984Z,7.70
2018-07-21T20:32:23.212Z,7.50
2018-07-21T20:34:51.347Z,8.37
2018-07-21T20:37:19.913Z,8.77
2018-07-21T20:39:48.187Z,8.20
2018-07-21T20:42:16.268Z,8.30
2018-07-21T20:44:44.465Z,8.63
2018-07-21T20:47:12.668Z,9.63
2018-07-21T20:49:40.888Z,8.83
2018-07-21T20:52:09.287Z,7.57
2018-07-21T20:54:37.581Z,8.37
2018-07-21T20:57:05.882Z,9.47
2018-07-21T20:59:34.034Z,9.40
2018-07-21T21:02:02.228Z,9.00
2018-07-21T21:04:30.558Z,10.20
2018-07-21T21:06:58.811Z,11.53
2018-07-21T21:09:26.982Z,9.40
2018-07-21T21:11:55.152Z,9.50
2018-07-21T21:14:23.319Z,9.17
2018-07-21T21:16:51.556Z,9.30
2018-07-21T21:19:19.911Z,9.15
2018-07-21T21:21:48.070Z,9.50
2018-07-21T21:24:16.285Z,8.97
2018-07-21T21:26:44.508Z,9.40
2018-07-21T21:29:12.722Z,8.50
2018-07-21T21:31:40.905Z,9.50
2018-07-21T21:34:09.138Z,8.70
2018-07-21T21:36:37.340Z,10.10
2018-07-21T21:39:08.597Z,10.20
2018-07-21T21:41:36.817Z,9.20
2018-07-21T21:44:05.044Z,10.75
2018-07-21T21:46:33.192Z,9.55
2018-07-21T21:49:01.373Z,9.02
2018-07-21T21:51:29.578Z,9.23
2018-07-21T21:53:57.905Z,9.23
2018-07-21T21:56:26.346Z,9.53
2018-07-21T21:58:54.510Z,9.90
2018-07-21T22:01:22.709Z,9.50
2018-07-21T22:03:50.897Z,9.67
2018-07-21T22:06:19.088Z,9.20
2018-07-21T22:08:47.254Z,8.47
2018-07-21T22:11:15.418Z,9.30
2018-07-21T22:13:43.631Z,8.50
2018-07-21T22:16:11.788Z,9.37
2018-07-21T22:18:39.929Z,9.33
2018-07-21T22:21:08.105Z,8.80
2018-07-21T22:23:36.305Z,9.60
2018-07-21T22:26:04.466Z,9.83
2018-07-21T22:28:32.639Z,9.40
2018-07-21T22:31:00.826Z,8.57
2018-07-21T22:33:29.002Z,10.10
2018-07-21T22:35:57.210Z,8.90
2018-07-21T22:38:25.401Z,8.50
2018-07-21T22:40:53.597Z,8.93
2018-07-21T22:43:21.825Z,8.38
2018-07-21T22:45:50.023Z,9.80
2018-07-21T22:48:18.181Z,9.20
2018-07-21T22:50:46.400Z,9.03
2018-07-21T22:53:14.546Z,9.40
2018-07-21T22:55:42.683Z,8.97
2018-07-21T22:58:10.828Z,9.60
2018-07-21T23:00:38.939Z,8.50
2018-07-21T23:03:07.136Z,9.30
2018-07-21T23:05:35.338Z,9.00
2018-07-21T23:08:03.463Z,9.23
2018-07-21T23:10:31.630Z,9.00
2018-07-21T23:12:59.835Z,9.20
2018-07-21T23:15:27.996Z,9.70
2018-07-21T23:17:56.119Z,9.47
2018-07-21T23:20:24.265Z,8.80
2018-07-21T23:22:52.459Z,9.40
2018-07-21T23:25:20.617Z,9.05
2018-07-21T23:27:48.801Z,8.00
2018-07-21T23:30:16.930Z,10.10
2018-07-21T23:32:45.070Z,9.45
2018-07-21T23:35:13.222Z,9.43
2018-07-21T23:37:41.357Z,9.80
2018-07-21T23:40:09.498Z,9.45
2018-07-21T23:42:37.670Z,9.35
2018-07-21T23:45:06.217Z,10.03
2018-07-21T23:47:34.410Z,10.53
2018-07-21T23:50:02.628Z,9.35
2018-07-21T23:52:30.842Z,10.47
2018-07-21T23:54:59.033Z,9.40
2018-07-21T23:57:27.204Z,9.55
2018-07-21T23:59:55.442Z,9.37
